Terminal Aerodrome Forecast
Issued by NWS Albany, NY

Home | Current Version | Previous Version | Text Only | Print | Product List | Glossary On
Versions: 1 2 3 4 5 6 7 8 9 10 11 12 13 14 15 16 17
599
FTUS41 KALY 191136
TAFALB
TAF
KALB 191136Z 1912/2012 26005KT P6SM SCT250 WS020/29035KT
     FM191400 29012G18KT P6SM SCT040 BKN200
     FM191700 30014G22KT P6SM SCT015 BKN040
     FM192100 31012G20KT P6SM OVC040
     FM200200 32009KT P6SM BKN040
     FM200600 33006KT P6SM SCT040=

USA.gov is the U.S. government's official web portal to all federal, state and local government web resources and services.